sensor_id;sensor_type;location;lat;lon;timestamp;pressure;altitude;pressure_sealevel;temperature;humidity
2178;BME280;1095;50.992;6.798;2023-02-19T00:00:54;101176.88;;;9.83;100.00
2178;BME280;1095;50.992;6.798;2023-02-19T00:03:21;101165.88;;;9.80;100.00
2178;BME280;1095;50.992;6.798;2023-02-19T00:05:47;101171.09;;;9.80;100.00
2178;BME280;1095;50.992;6.798;2023-02-19T00:08:14;101163.81;;;9.74;100.00
2178;BME280;1095;50.992;6.798;2023-02-19T00:10:40;101172.59;;;9.63;100.00
2178;BME280;1095;50.992;6.798;2023-02-19T00:13:08;101167.22;;;9.55;100.00
2178;BME280;1095;50.992;6.798;2023-02-19T00:15:35;101168.47;;;9.51;100.00
2178;BME280;1095;50.992;6.798;2023-02-19T00:18:02;101175.03;;;9.45;100.00
2178;BME280;1095;50.992;6.798;2023-02-19T00:20:28;101173.56;;;9.43;100.00
2178;BME280;1095;50.992;6.798;2023-02-19T00:22:55;101172.31;;;9.47;100.00
2178;BME280;1095;50.992;6.798;2023-02-19T00:25:21;101161.97;;;9.45;100.00
2178;BME280;1095;50.992;6.798;2023-02-19T00:27:48;101161.97;;;9.45;100.00
2178;BME280;1095;50.992;6.798;2023-02-19T00:30:16;101163.81;;;9.45;100.00
2178;BME280;1095;50.992;6.798;2023-02-19T00:32:42;101164.59;;;9.45;100.00
2178;BME280;1095;50.992;6.798;2023-02-19T00:35:09;101165.84;;;9.51;100.00
2178;BME280;1095;50.992;6.798;2023-02-19T00:37:36;101161.19;;;9.54;100.00
2178;BME280;1095;50.992;6.798;2023-02-19T00:40:03;101163.78;;;9.54;100.00
2178;BME280;1095;50.992;6.798;2023-02-19T00:42:29;101152.09;;;9.58;100.00
2178;BME280;1095;50.992;6.798;2023-02-19T00:44:56;101152.94;;;9.59;100.00
2178;BME280;1095;50.992;6.798;2023-02-19T00:47:24;101146.75;;;9.60;100.00
2178;BME280;1095;50.992;6.798;2023-02-19T00:49:51;101138.63;;;9.63;100.00
2178;BME280;1095;50.992;6.798;2023-02-19T00:52:17;101136.56;;;9.67;100.00
2178;BME280;1095;50.992;6.798;2023-02-19T00:54:44;101136.84;;;9.73;100.00
2178;BME280;1095;50.992;6.798;2023-02-19T00:57:10;101132.31;;;9.75;100.00
2178;BME280;1095;50.992;6.798;2023-02-19T00:59:37;101131.91;;;9.80;100.00
2178;BME280;1095;50.992;6.798;2023-02-19T01:02:03;101140.69;;;9.79;100.00
2178;BME280;1095;50.992;6.798;2023-02-19T01:04:31;101133.81;;;9.78;100.00
2178;BME280;1095;50.992;6.798;2023-02-19T01:07:01;101126.94;;;9.77;100.00
2178;BME280;1095;50.992;6.798;2023-02-19T01:09:27;101126.81;;;9.78;100.00
2178;BME280;1095;50.992;6.798;2023-02-19T01:11:56;101133.56;;;9.81;100.00
2178;BME280;1095;50.992;6.798;2023-02-19T01:14:23;101134.38;;;9.81;100.00
2178;BME280;1095;50.992;6.798;2023-02-19T01:16:49;101138.91;;;9.79;100.00
2178;BME280;1095;50.992;6.798;2023-02-19T01:19:16;101133.97;;;9.76;100.00
2178;BME280;1095;50.992;6.798;2023-02-19T01:21:45;101137.13;;;9.80;100.00
2178;BME280;1095;50.992;6.798;2023-02-19T01:24:11;101128.31;;;9.81;100.00
2178;BME280;1095;50.992;6.798;2023-02-19T01:26:38;101127.22;;;9.83;100.00
2178;BME280;1095;50.992;6.798;2023-02-19T01:29:05;101120.88;;;9.86;100.00
2178;BME280;1095;50.992;6.798;2023-02-19T01:31:32;101124.75;;;9.82;100.00
2178;BME280;1095;50.992;6.798;2023-02-19T01:34:00;101133.00;;;9.87;100.00
2178;BME280;1095;50.992;6.798;2023-02-19T01:36:29;101137.69;;;9.83;100.00
2178;BME280;1095;50.992;6.798;2023-02-19T01:38:58;101132.31;;;9.85;100.00
2178;BME280;1095;50.992;6.798;2023-02-19T01:41:28;101128.03;;;9.84;100.00
2178;BME280;1095;50.992;6.798;2023-02-19T01:44:00;101140.16;;;9.85;100.00
2178;BME280;1095;50.992;6.798;2023-02-19T01:46:27;101132.03;;;9.88;100.00
2178;BME280;1095;50.992;6.798;2023-02-19T01:48:56;101128.59;;;9.87;100.00
2178;BME280;1095;50.992;6.798;2023-02-19T01:51:25;101137.25;;;9.88;100.00
2178;BME280;1095;50.992;6.798;2023-02-19T01:53:55;101131.91;;;9.89;100.00
2178;BME280;1095;50.992;6.798;2023-02-19T01:56:25;101130.25;;;9.88;100.00
2178;BME280;1095;50.992;6.798;2023-02-19T01:58:53;101134.50;;;9.89;100.00
2178;BME280;1095;50.992;6.798;2023-02-19T02:01:19;101136.31;;;9.89;100.00
2178;BME280;1095;50.992;6.798;2023-02-19T02:03:46;101135.47;;;9.88;100.00
2178;BME280;1095;50.992;6.798;2023-02-19T02:06:17;101130.53;;;9.85;100.00
2178;BME280;1095;50.992;6.798;2023-02-19T02:08:48;101130.66;;;9.84;100.00
2178;BME280;1095;50.992;6.798;2023-02-19T02:11:34;101147.31;;;9.83;100.00
2178;BME280;1095;50.992;6.798;2023-02-19T02:14:02;101127.50;;;9.90;100.00
2178;BME280;1095;50.992;6.798;2023-02-19T02:16:33;101127.78;;;9.87;100.00
2178;BME280;1095;50.992;6.798;2023-02-19T02:19:15;101137.25;;;9.88;100.00
2178;BME280;1095;50.992;6.798;2023-02-19T02:21:53;101140.69;;;9.88;100.00
2178;BME280;1095;50.992;6.798;2023-02-19T02:24:55;101137.13;;;9.89;100.00
2178;BME280;1095;50.992;6.798;2023-02-19T02:27:46;101140.28;;;9.83;100.00
2178;BME280;1095;50.992;6.798;2023-02-19T02:30:24;101140.16;;;9.75;100.00
2178;BME280;1095;50.992;6.798;2023-02-19T02:32:58;101127.78;;;9.77;100.00
2178;BME280;1095;50.992;6.798;2023-02-19T02:35:29;101131.34;;;9.76;100.00
2178;BME280;1095;50.992;6.798;2023-02-19T02:38:02;101133.28;;;9.74;100.00
2178;BME280;1095;50.992;6.798;2023-02-19T02:40:30;101127.34;;;9.72;100.00
2178;BME280;1095;50.992;6.798;2023-02-19T02:42:58;101121.16;;;9.73;100.00
2178;BME280;1095;50.992;6.798;2023-02-19T02:45:29;101115.66;;;9.76;100.00
2178;BME280;1095;50.992;6.798;2023-02-19T02:48:16;101128.75;;;9.76;100.00
2178;BME280;1095;50.992;6.798;2023-02-19T02:50:47;101122.69;;;9.76;100.00
2178;BME280;1095;50.992;6.798;2023-02-19T02:53:19;101120.34;;;9.73;100.00
2178;BME280;1095;50.992;6.798;2023-02-19T02:56:04;101131.06;;;9.70;100.00
2178;BME280;1095;50.992;6.798;2023-02-19T02:58:32;101122.41;;;9.69;100.00
2178;BME280;1095;50.992;6.798;2023-02-19T03:01:04;101140.56;;;9.71;100.00
2178;BME280;1095;50.992;6.798;2023-02-19T03:03:53;101142.50;;;9.69;100.00
2178;BME280;1095;50.992;6.798;2023-02-19T03:06:24;101132.16;;;9.67;100.00
2178;BME280;1095;50.992;6.798;2023-02-19T03:08:56;101150.06;;;9.72;100.00
2178;BME280;1095;50.992;6.798;2023-02-19T03:11:24;101138.63;;;9.73;100.00
2178;BME280;1095;50.992;6.798;2023-02-19T03:14:11;101155.28;;;9.72;100.00
2178;BME280;1095;50.992;6.798;2023-02-19T03:17:01;101153.91;;;9.68;100.00
2178;BME280;1095;50.992;6.798;2023-02-19T03:19:49;101156.38;;;9.69;100.00
2178;BME280;1095;50.992;6.798;2023-02-19T03:22:21;101132.03;;;9.69;100.00
2178;BME280;1095;50.992;6.798;2023-02-19T03:24:52;101163.81;;;9.74;100.00
2178;BME280;1095;50.992;6.798;2023-02-19T03:27:39;101155.69;;;9.77;100.00
2178;BME280;1095;50.992;6.798;2023-02-19T03:30:10;101168.06;;;9.75;100.00
2178;BME280;1095;50.992;6.798;2023-02-19T03:32:43;101153.34;;;9.74;100.00
2178;BME280;1095;50.992;6.798;2023-02-19T03:35:15;101174.25;;;9.74;100.00
2178;BME280;1095;50.992;6.798;2023-02-19T03:37:46;101163.38;;;9.69;100.00
2178;BME280;1095;50.992;6.798;2023-02-19T03:40:16;101164.63;;;9.74;100.00
2178;BME280;1095;50.992;6.798;2023-02-19T03:42:49;101162.44;;;9.70;100.00
2178;BME280;1095;50.992;6.798;2023-02-19T03:45:30;101169.44;;;9.69;100.00
2178;BME280;1095;50.992;6.798;2023-02-19T03:48:07;101176.47;;;9.69;100.00
2178;BME280;1095;50.992;6.798;2023-02-19T03:50:43;101176.47;;;9.69;100.00
2178;BME280;1095;50.992;6.798;2023-02-19T03:53:16;101181.41;;;9.72;100.00
2178;BME280;1095;50.992;6.798;2023-02-19T03:55:56;101177.84;;;9.73;100.00
2178;BME280;1095;50.992;6.798;2023-02-19T03:58:32;101180.59;;;9.81;100.00
2178;BME280;1095;50.992;6.798;2023-02-19T04:01:05;101185.28;;;9.77;100.00
2178;BME280;1095;50.992;6.798;2023-02-19T04:03:39;101184.84;;;9.72;100.00
2178;BME280;1095;50.992;6.798;2023-02-19T04:06:10;101186.34;;;9.65;100.00
2178;BME280;1095;50.992;6.798;2023-02-19T04:08:42;101184.41;;;9.57;100.00
2178;BME280;1095;50.992;6.798;2023-02-19T04:11:10;101183.56;;;9.47;100.00
2178;BME280;1095;50.992;6.798;2023-02-19T04:13:40;101195.69;;;9.48;100.00
2178;BME280;1095;50.992;6.798;2023-02-19T04:16:12;101210.00;;;9.44;100.00
2178;BME280;1095;50.992;6.798;2023-02-19T04:18:44;101206.13;;;9.39;100.00
2178;BME280;1095;50.992;6.798;2023-02-19T04:21:13;101206.69;;;9.42;100.00
2178;BME280;1095;50.992;6.798;2023-02-19T04:23:43;101222.38;;;9.42;100.00
2178;BME280;1095;50.992;6.798;2023-02-19T04:26:11;101223.06;;;9.44;100.00
2178;BME280;1095;50.992;6.798;2023-02-19T04:28:39;101229.25;;;9.43;100.00
2178;BME280;1095;50.992;6.798;2023-02-19T04:31:07;101216.03;;;9.35;100.00
2178;BME280;1095;50.992;6.798;2023-02-19T04:33:33;101229.88;;;9.26;100.00
2178;BME280;1095;50.992;6.798;2023-02-19T04:36:02;101231.63;;;9.16;100.00
2178;BME280;1095;50.992;6.798;2023-02-19T04:38:28;101243.97;;;9.14;100.00
2178;BME280;1095;50.992;6.798;2023-02-19T04:40:56;101244.09;;;9.12;100.00
2178;BME280;1095;50.992;6.798;2023-02-19T04:43:22;101236.97;;;9.14;100.00
2178;BME280;1095;50.992;6.798;2023-02-19T04:45:49;101253.97;;;9.09;100.00
2178;BME280;1095;50.992;6.798;2023-02-19T04:48:15;101245.19;;;9.10;100.00
2178;BME280;1095;50.992;6.798;2023-02-19T04:50:42;101246.84;;;9.11;100.00
2178;BME280;1095;50.992;6.798;2023-02-19T04:53:10;101256.34;;;9.12;100.00
2178;BME280;1095;50.992;6.798;2023-02-19T04:55:37;101262.91;;;9.06;100.00
2178;BME280;1095;50.992;6.798;2023-02-19T04:58:04;101257.81;;;9.05;100.00
2178;BME280;1095;50.992;6.798;2023-02-19T05:00:31;101260.41;;;9.05;100.00
2178;BME280;1095;50.992;6.798;2023-02-19T05:02:58;101272.53;;;9.06;100.00
2178;BME280;1095;50.992;6.798;2023-02-19T05:05:25;101273.91;;;9.10;100.00
2178;BME280;1095;50.992;6.798;2023-02-19T05:07:51;101273.91;;;9.10;100.00
2178;BME280;1095;50.992;6.798;2023-02-19T05:10:19;101274.16;;;9.07;100.00
2178;BME280;1095;50.992;6.798;2023-02-19T05:12:46;101273.72;;;9.02;100.00
2178;BME280;1095;50.992;6.798;2023-02-19T05:15:13;101279.66;;;9.04;100.00
2178;BME280;1095;50.992;6.798;2023-02-19T05:17:39;101296.41;;;9.01;100.00
2178;BME280;1095;50.992;6.798;2023-02-19T05:20:07;101286.78;;;9.02;100.00
2178;BME280;1095;50.992;6.798;2023-02-19T05:22:34;101284.31;;;9.00;100.00
2178;BME280;1095;50.992;6.798;2023-02-19T05:25:00;101286.91;;;9.00;100.00
2178;BME280;1095;50.992;6.798;2023-02-19T05:27:30;101295.16;;;8.95;100.00
2178;BME280;1095;50.992;6.798;2023-02-19T05:29:57;101290.34;;;9.01;100.00
2178;BME280;1095;50.992;6.798;2023-02-19T05:32:23;101300.66;;;9.02;100.00
2178;BME280;1095;50.992;6.798;2023-02-19T05:34:52;101305.06;;;9.02;100.00
2178;BME280;1095;50.992;6.798;2023-02-19T05:37:19;101316.91;;;9.06;100.00
2178;BME280;1095;50.992;6.798;2023-02-19T05:39:45;101309.44;;;9.01;100.00
2178;BME280;1095;50.992;6.798;2023-02-19T05:42:13;101317.00;;;8.94;100.00
2178;BME280;1095;50.992;6.798;2023-02-19T05:44:42;101319.75;;;8.93;100.00
2178;BME280;1095;50.992;6.798;2023-02-19T05:47:08;101320.69;;;8.92;100.00
2178;BME280;1095;50.992;6.798;2023-02-19T05:49:35;101326.03;;;8.90;100.00
2178;BME280;1095;50.992;6.798;2023-02-19T05:52:02;101322.47;;;8.91;100.00
2178;BME280;1095;50.992;6.798;2023-02-19T05:54:29;101332.09;;;8.91;100.00
2178;BME280;1095;50.992;6.798;2023-02-19T05:56:56;101337.31;;;8.91;100.00
2178;BME280;1095;50.992;6.798;2023-02-19T05:59:24;101345.53;;;8.86;100.00
2178;BME280;1095;50.992;6.798;2023-02-19T06:01:53;101341.25;;;8.85;100.00
2178;BME280;1095;50.992;6.798;2023-02-19T06:04:20;101337.00;;;8.84;100.00
2178;BME280;1095;50.992;6.798;2023-02-19T06:06:47;101340.56;;;8.83;100.00
2178;BME280;1095;50.992;6.798;2023-02-19T06:09:14;101346.28;;;8.77;100.00
2178;BME280;1095;50.992;6.798;2023-02-19T06:11:41;101335.97;;;8.76;100.00
2178;BME280;1095;50.992;6.798;2023-02-19T06:14:10;101344.38;;;8.79;100.00
2178;BME280;1095;50.992;6.798;2023-02-19T06:16:37;101345.44;;;8.77;100.00
2178;BME280;1095;50.992;6.798;2023-02-19T06:19:05;101353.41;;;8.75;100.00
2178;BME280;1095;50.992;6.798;2023-02-19T06:21:31;101339.66;;;8.73;100.00
2178;BME280;1095;50.992;6.798;2023-02-19T06:23:58;101354.81;;;8.79;100.00
2178;BME280;1095;50.992;6.798;2023-02-19T06:26:29;101357.03;;;8.84;100.00
2178;BME280;1095;50.992;6.798;2023-02-19T06:28:55;101362.84;;;8.87;100.00
2178;BME280;1095;50.992;6.798;2023-02-19T06:31:22;101361.19;;;8.86;100.00
2178;BME280;1095;50.992;6.798;2023-02-19T06:33:49;101366.41;;;8.86;100.00
2178;BME280;1095;50.992;6.798;2023-02-19T06:36:18;101360.59;;;8.83;100.00
2178;BME280;1095;50.992;6.798;2023-02-19T06:38:45;101362.50;;;8.81;100.00
2178;BME280;1095;50.992;6.798;2023-02-19T06:41:12;101356.72;;;8.77;100.00
2178;BME280;1095;50.992;6.798;2023-02-19T06:43:39;101360.28;;;8.76;100.00
2178;BME280;1095;50.992;6.798;2023-02-19T06:46:06;101375.22;;;8.74;100.00
2178;BME280;1095;50.992;6.798;2023-02-19T06:48:33;101380.44;;;8.74;100.00
2178;BME280;1095;50.992;6.798;2023-02-19T06:51:00;101388.03;;;8.77;100.00
2178;BME280;1095;50.992;6.798;2023-02-19T06:53:28;101380.19;;;8.77;100.00
2178;BME280;1095;50.992;6.798;2023-02-19T06:55:56;101382.56;;;8.80;100.00
2178;BME280;1095;50.992;6.798;2023-02-19T06:58:23;101377.59;;;8.77;100.00
2178;BME280;1095;50.992;6.798;2023-02-19T07:00:50;101378.78;;;8.73;100.00
2178;BME280;1095;50.992;6.798;2023-02-19T07:03:16;101390.19;;;8.72;100.00
2178;BME280;1095;50.992;6.798;2023-02-19T07:05:43;101400.63;;;8.72;100.00
2178;BME280;1095;50.992;6.798;2023-02-19T07:08:09;101395.91;;;8.66;100.00
2178;BME280;1095;50.992;6.798;2023-02-19T07:10:37;101403.50;;;8.58;100.00
2178;BME280;1095;50.992;6.798;2023-02-19T07:13:04;101414.19;;;8.55;100.00
2178;BME280;1095;50.992;6.798;2023-02-19T07:15:30;101422.97;;;8.54;100.00
2178;BME280;1095;50.992;6.798;2023-02-19T07:17:58;101426.41;;;8.54;100.00
2178;BME280;1095;50.992;6.798;2023-02-19T07:20:25;101439.56;;;8.53;100.00
2178;BME280;1095;50.992;6.798;2023-02-19T07:22:51;101437.25;;;8.50;100.00
2178;BME280;1095;50.992;6.798;2023-02-19T07:25:20;101438.31;;;8.47;100.00
2178;BME280;1095;50.992;6.798;2023-02-19T07:27:48;101435.81;;;8.46;100.00
2178;BME280;1095;50.992;6.798;2023-02-19T07:30:15;101443.28;;;8.50;100.00
2178;BME280;1095;50.992;6.798;2023-02-19T07:32:41;101452.13;;;8.59;100.00
2178;BME280;1095;50.992;6.798;2023-02-19T07:35:09;101449.97;;;8.64;100.00
2178;BME280;1095;50.992;6.798;2023-02-19T07:37:36;101457.34;;;8.59;100.00
2178;BME280;1095;50.992;6.798;2023-02-19T07:40:04;101464.81;;;8.63;100.00
2178;BME280;1095;50.992;6.798;2023-02-19T07:42:31;101463.72;;;8.66;100.00
2178;BME280;1095;50.992;6.798;2023-02-19T07:44:58;101469.53;;;8.70;100.00
2178;BME280;1095;50.992;6.798;2023-02-19T07:47:25;101478.91;;;8.72;100.00
2178;BME280;1095;50.992;6.798;2023-02-19T07:49:52;101477.22;;;8.82;100.00
2178;BME280;1095;50.992;6.798;2023-02-19T07:52:19;101479.56;;;8.85;100.00
2178;BME280;1095;50.992;6.798;2023-02-19T07:54:45;101477.66;;;8.87;100.00
2178;BME280;1095;50.992;6.798;2023-02-19T07:57:12;101476.25;;;8.83;100.00
2178;BME280;1095;50.992;6.798;2023-02-19T07:59:38;101481.97;;;8.77;100.00
2178;BME280;1095;50.992;6.798;2023-02-19T08:02:12;101489.69;;;8.79;100.00
2178;BME280;1095;50.992;6.798;2023-02-19T08:04:58;101488.13;;;8.76;100.00
2178;BME280;1095;50.992;6.798;2023-02-19T08:07:30;101493.72;;;8.72;100.00
2178;BME280;1095;50.992;6.798;2023-02-19T08:09:56;101503.44;;;8.70;100.00
2178;BME280;1095;50.992;6.798;2023-02-19T08:12:54;101509.00;;;8.76;100.00
2178;BME280;1095;50.992;6.798;2023-02-19T08:15:38;101510.19;;;8.83;100.00
2178;BME280;1095;50.992;6.798;2023-02-19T08:18:06;101510.88;;;8.85;100.00
2178;BME280;1095;50.992;6.798;2023-02-19T08:20:32;101505.56;;;8.87;100.00
2178;BME280;1095;50.992;6.798;2023-02-19T08:22:59;101521.34;;;8.85;100.00
2178;BME280;1095;50.992;6.798;2023-02-19T08:25:26;101516.69;;;8.89;100.00
2178;BME280;1095;50.992;6.798;2023-02-19T08:27:53;101513.91;;;9.02;100.00
2178;BME280;1095;50.992;6.798;2023-02-19T08:30:20;101525.28;;;9.01;100.00
2178;BME280;1095;50.992;6.798;2023-02-19T08:32:47;101523.63;;;8.99;100.00
2178;BME280;1095;50.992;6.798;2023-02-19T08:35:15;101526.53;;;8.96;100.00
2178;BME280;1095;50.992;6.798;2023-02-19T08:37:42;101530.28;;;9.04;100.00
2178;BME280;1095;50.992;6.798;2023-02-19T08:40:09;101535.09;;;9.19;100.00
2178;BME280;1095;50.992;6.798;2023-02-19T08:42:36;101535.94;;;9.41;100.00
2178;BME280;1095;50.992;6.798;2023-02-19T08:45:04;101541.31;;;9.39;100.00
2178;BME280;1095;50.992;6.798;2023-02-19T08:47:31;101535.81;;;9.42;100.00
2178;BME280;1095;50.992;6.798;2023-02-19T08:50:00;101536.09;;;9.39;100.00
2178;BME280;1095;50.992;6.798;2023-02-19T08:52:28;101533.72;;;9.36;100.00
2178;BME280;1095;50.992;6.798;2023-02-19T08:54:54;101537.28;;;9.35;100.00
2178;BME280;1095;50.992;6.798;2023-02-19T08:57:21;101543.47;;;9.34;100.00
2178;BME280;1095;50.992;6.798;2023-02-19T08:59:47;101533.00;;;9.34;100.00
2178;BME280;1095;50.992;6.798;2023-02-19T09:02:14;101542.97;;;9.40;100.00
2178;BME280;1095;50.992;6.798;2023-02-19T09:04:41;101543.53;;;9.44;100.00
2178;BME280;1095;50.992;6.798;2023-02-19T09:07:08;101553.41;;;9.40;100.00
2178;BME280;1095;50.992;6.798;2023-02-19T09:09:37;101549.31;;;9.47;100.00
2178;BME280;1095;50.992;6.798;2023-02-19T09:12:04;101542.19;;;9.49;100.00
2178;BME280;1095;50.992;6.798;2023-02-19T09:14:31;101546.56;;;9.49;100.00
2178;BME280;1095;50.992;6.798;2023-02-19T09:16:58;101548.22;;;9.50;100.00
2178;BME280;1095;50.992;6.798;2023-02-19T09:19:26;101557.28;;;9.46;100.00
2178;BME280;1095;50.992;6.798;2023-02-19T09:21:53;101552.63;;;9.49;100.00
2178;BME280;1095;50.992;6.798;2023-02-19T09:24:20;101558.09;;;9.46;100.00
2178;BME280;1095;50.992;6.798;2023-02-19T09:26:49;101562.00;;;9.52;100.00
2178;BME280;1095;50.992;6.798;2023-02-19T09:29:17;101565.44;;;9.52;100.00
2178;BME280;1095;50.992;6.798;2023-02-19T09:31:44;101573.28;;;9.52;100.00
2178;BME280;1095;50.992;6.798;2023-02-19T09:34:10;101588.06;;;9.42;100.00
2178;BME280;1095;50.992;6.798;2023-02-19T09:36:57;101580.13;;;9.44;100.00
2178;BME280;1095;50.992;6.798;2023-02-19T09:39:35;101582.56;;;9.45;100.00
2178;BME280;1095;50.992;6.798;2023-02-19T09:42:33;101575.88;;;9.52;100.00
2178;BME280;1095;50.992;6.798;2023-02-19T09:45:03;101583.47;;;9.55;100.00
2178;BME280;1095;50.992;6.798;2023-02-19T09:47:37;101588.38;;;9.49;100.00
2178;BME280;1095;50.992;6.798;2023-02-19T09:50:21;101600.56;;;9.39;100.00
2178;BME280;1095;50.992;6.798;2023-02-19T09:53:17;101618.16;;;9.25;100.00
2178;BME280;1095;50.992;6.798;2023-02-19T09:55:45;101615.63;;;9.35;100.00
2178;BME280;1095;50.992;6.798;2023-02-19T09:58:24;101607.19;;;9.43;100.00
2178;BME280;1095;50.992;6.798;2023-02-19T10:00:52;101602.09;;;9.41;100.00
2178;BME280;1095;50.992;6.798;2023-02-19T10:03:31;101603.09;;;9.50;100.00
2178;BME280;1095;50.992;6.798;2023-02-19T10:06:05;101605.00;;;9.80;100.00
2178;BME280;1095;50.992;6.798;2023-02-19T10:08:34;101602.88;;;9.74;100.00
2178;BME280;1095;50.992;6.798;2023-02-19T10:11:03;101608.72;;;9.66;100.00
2178;BME280;1095;50.992;6.798;2023-02-19T10:13:35;101607.94;;;9.54;100.00
2178;BME280;1095;50.992;6.798;2023-02-19T10:16:04;101616.75;;;9.53;100.00
2178;BME280;1095;50.992;6.798;2023-02-19T10:18:37;101617.81;;;9.51;100.00
2178;BME280;1095;50.992;6.798;2023-02-19T10:21:06;101624.53;;;9.44;100.00
2178;BME280;1095;50.992;6.798;2023-02-19T10:27:18;101645.81;;;9.28;100.00
2178;BME280;1095;50.992;6.798;2023-02-19T10:30:39;101661.13;;;9.21;100.00
2178;BME280;1095;50.992;6.798;2023-02-19T10:33:33;101659.59;;;9.30;100.00
2178;BME280;1095;50.992;6.798;2023-02-19T10:36:30;101662.34;;;9.49;100.00
2178;BME280;1095;50.992;6.798;2023-02-19T10:39:43;101674.91;;;9.67;100.00
2178;BME280;1095;50.992;6.798;2023-02-19T10:43:07;101685.56;;;9.75;100.00
2178;BME280;1095;50.992;6.798;2023-02-19T11:03:33;101688.47;;;10.13;100.00
2178;BME280;1095;50.992;6.798;2023-02-19T11:06:54;101717.78;;;10.28;100.00
2178;BME280;1095;50.992;6.798;2023-02-19T11:09:59;101703.75;;;10.29;100.00
2178;BME280;1095;50.992;6.798;2023-02-19T11:13:23;101711.38;;;10.42;100.00
2178;BME280;1095;50.992;6.798;2023-02-19T11:16:03;101713.56;;;10.37;100.00
2178;BME280;1095;50.992;6.798;2023-02-19T11:18:56;101706.13;;;10.32;100.00
2178;BME280;1095;50.992;6.798;2023-02-19T11:22:26;101715.84;;;10.51;100.00
2178;BME280;1095;50.992;6.798;2023-02-19T11:31:42;101720.22;;;9.88;100.00
2178;BME280;1095;50.992;6.798;2023-02-19T11:34:32;101704.81;;;9.74;100.00
2178;BME280;1095;50.992;6.798;2023-02-19T11:39:35;101703.84;;;9.75;100.00
2178;BME280;1095;50.992;6.798;2023-02-19T11:42:26;101715.88;;;9.98;100.00
2178;BME280;1095;50.992;6.798;2023-02-19T11:45:08;101709.41;;;9.81;100.00
2178;BME280;1095;50.992;6.798;2023-02-19T11:47:56;101698.16;;;10.02;100.00
2178;BME280;1095;50.992;6.798;2023-02-19T11:50:31;101696.59;;;9.99;100.00
2178;BME280;1095;50.992;6.798;2023-02-19T11:55:39;101699.94;;;10.33;100.00
2178;BME280;1095;50.992;6.798;2023-02-19T11:58:21;101692.72;;;10.25;100.00
2178;BME280;1095;50.992;6.798;2023-02-19T12:01:00;101684.88;;;10.14;100.00
2178;BME280;1095;50.992;6.798;2023-02-19T12:03:57;101688.00;;;10.19;100.00
2178;BME280;1095;50.992;6.798;2023-02-19T12:06:38;101686.75;;;10.44;100.00
2178;BME280;1095;50.992;6.798;2023-02-19T12:09:46;101683.94;;;10.57;100.00
2178;BME280;1095;50.992;6.798;2023-02-19T12:16:15;101663.59;;;11.10;99.47
2178;BME280;1095;50.992;6.798;2023-02-19T12:19:08;101668.59;;;11.23;98.35
2178;BME280;1095;50.992;6.798;2023-02-19T12:22:10;101677.97;;;11.35;96.62
2178;BME280;1095;50.992;6.798;2023-02-19T14:40:27;101802.00;;;9.56;100.00
2178;BME280;1095;50.992;6.798;2023-02-19T14:42:56;101808.53;;;9.62;100.00
2178;BME280;1095;50.992;6.798;2023-02-19T14:45:26;101801.31;;;9.54;100.00
2178;BME280;1095;50.992;6.798;2023-02-19T14:47:55;101806.66;;;9.53;100.00
2178;BME280;1095;50.992;6.798;2023-02-19T14:50:27;101799.75;;;9.52;100.00
2178;BME280;1095;50.992;6.798;2023-02-19T14:52:59;101801.31;;;9.54;100.00
2178;BME280;1095;50.992;6.798;2023-02-19T14:55:30;101799.06;;;9.50;100.00
2178;BME280;1095;50.992;6.798;2023-02-19T14:58:02;101801.53;;;9.51;100.00
2178;BME280;1095;50.992;6.798;2023-02-19T15:00:33;101804.03;;;9.53;100.00
2178;BME280;1095;50.992;6.798;2023-02-19T15:03:01;101803.78;;;9.56;100.00
2178;BME280;1095;50.992;6.798;2023-02-19T15:05:29;101803.69;;;9.57;100.00
2178;BME280;1095;50.992;6.798;2023-02-19T15:07:58;101801.06;;;9.57;100.00
2178;BME280;1095;50.992;6.798;2023-02-19T15:10:29;101799.06;;;9.50;100.00
2178;BME280;1095;50.992;6.798;2023-02-19T15:12:59;101793.72;;;9.51;100.00
2178;BME280;1095;50.992;6.798;2023-02-19T15:15:29;101774.34;;;9.54;100.00
2178;BME280;1095;50.992;6.798;2023-02-19T15:17:58;101790.03;;;9.54;100.00
2178;BME280;1095;50.992;6.798;2023-02-19T15:20:28;101779.50;;;9.44;100.00
2178;BME280;1095;50.992;6.798;2023-02-19T15:22:57;101784.44;;;9.58;100.00
2178;BME280;1095;50.992;6.798;2023-02-19T15:25:31;101768.03;;;9.56;100.00
2178;BME280;1095;50.992;6.798;2023-02-19T15:28:17;101766.88;;;9.49;100.00
2178;BME280;1095;50.992;6.798;2023-02-19T15:30:46;101769.94;;;9.54;100.00
2178;BME280;1095;50.992;6.798;2023-02-19T15:33:15;101759.97;;;9.48;100.00
2178;BME280;1095;50.992;6.798;2023-02-19T15:35:46;101741.72;;;9.37;100.00
2178;BME280;1095;50.992;6.798;2023-02-19T15:38:13;101734.25;;;9.32;100.00
2178;BME280;1095;50.992;6.798;2023-02-19T15:40:44;101741.72;;;9.37;100.00
2178;BME280;1095;50.992;6.798;2023-02-19T15:43:20;101731.66;;;9.32;100.00
2178;BME280;1095;50.992;6.798;2023-02-19T15:45:49;101721.31;;;9.20;100.00
2178;BME280;1095;50.992;6.798;2023-02-19T15:48:23;101706.84;;;9.16;100.00
2178;BME280;1095;50.992;6.798;2023-02-19T15:50:58;101697.81;;;9.20;100.00
2178;BME280;1095;50.992;6.798;2023-02-19T15:53:35;101715.03;;;9.22;100.00
2178;BME280;1095;50.992;6.798;2023-02-19T15:56:08;101726.78;;;9.28;100.00
2178;BME280;1095;50.992;6.798;2023-02-19T15:58:37;101735.56;;;9.27;100.00
2178;BME280;1095;50.992;6.798;2023-02-19T16:01:15;101726.53;;;9.20;100.00
2178;BME280;1095;50.992;6.798;2023-02-19T16:03:46;101729.16;;;9.20;100.00
2178;BME280;1095;50.992;6.798;2023-02-19T16:06:14;101719.19;;;9.14;100.00
2178;BME280;1095;50.992;6.798;2023-02-19T16:08:43;101732.47;;;9.22;100.00
2178;BME280;1095;50.992;6.798;2023-02-19T16:11:36;101740.09;;;9.25;100.00
2178;BME280;1095;50.992;6.798;2023-02-19T16:14:21;101741.28;;;9.21;100.00
2178;BME280;1095;50.992;6.798;2023-02-19T16:16:51;101745.91;;;9.17;100.00
2178;BME280;1095;50.992;6.798;2023-02-19T16:19:20;101759.31;;;9.13;100.00
2178;BME280;1095;50.992;6.798;2023-02-19T16:21:48;101762.88;;;9.12;100.00
2178;BME280;1095;50.992;6.798;2023-02-19T16:24:26;101755.03;;;9.12;100.00
2178;BME280;1095;50.992;6.798;2023-02-19T16:26:54;101757.66;;;9.12;100.00
2178;BME280;1095;50.992;6.798;2023-02-19T16:29:23;101759.78;;;9.07;100.00